PWSweather.com
Personal Weather Stations
Station Observations
IMAZOWIE6
WarszawaPL

WarszawaPL

Lat: 52.27957, Lon: 21.05489

Elevation: 100

Station Type: WS1080

http://stacjapogody.waw.pl/

Latest ConditionsUpdated 11:47:45 PM GMT+01:01 Sunday, Jan 19, 2020
Currently Today's Max Today's Min Today's Average
Temperature 32.0°F0.0°C 32.0°F0.0°C 32.0°F0.0°C 32.0°F0.0°C
Dew Point -169.6°F-112.0°C -169.6°F-112.0°C -169.6°F-112.0°C -169.6°F-112.0°C
Winds Calm Calm Calm -Calm - - Calm Calm
Wind Gusts -- -- - -
Humidity - - - -
Pressure 31.61 in1070.4 mb 31.72 in1074.2 mb 31.26 in1058.6 mb -
Hour Temp Dew Point Humidity Winds Wind Gusts Pressure Precip Precip Rate Daily Precip Total
11:47 PM 32.0°F0.0°C -169.6°F-112.0°C - Calm Calm -- 31.61 in1070.4 mb 0.00 in0.0 mm 0.00 in0.0 mm 0.00 in0.0 mm
11:32 PM 32.0°F0.0°C -169.6°F-112.0°C - Calm Calm -- 31.57 in1069.1 mb 0.00 in0.0 mm 0.00 in0.0 mm 0.00 in0.0 mm
11:17 PM 32.0°F0.0°C -169.6°F-112.0°C - Calm Calm -- 31.56 in1068.7 mb 0.00 in0.0 mm 0.00 in0.0 mm 0.00 in0.0 mm
11:02 PM 32.0°F0.0°C -169.6°F-112.0°C - Calm Calm -- 31.56 in1068.7 mb 0.00 in0.0 mm 0.00 in0.0 mm 0.00 in0.0 mm
10:47 PM 32.0°F0.0°C -169.6°F-112.0°C - Calm Calm -- 31.56 in1068.7 mb 0.00 in0.0 mm 0.00 in0.0 mm 0.00 in0.0 mm
10:32 PM 32.0°F0.0°C -169.6°F-112.0°C - Calm Calm -- 31.55 in1068.4 mb 0.00 in0.0 mm 0.00 in0.0 mm 0.00 in0.0 mm
10:17 PM 32.0°F0.0°C -169.6°F-112.0°C - Calm Calm -- 31.54 in1068.1 mb 0.00 in0.0 mm 0.00 in0.0 mm 0.00 in0.0 mm
10:02 PM 32.0°F0.0°C -169.6°F-112.0°C - Calm Calm -- 31.54 in1068.1 mb 0.00 in0.0 mm 0.00 in0.0 mm 0.00 in0.0 mm
09:47 PM 32.0°F0.0°C -169.6°F-112.0°C - Calm Calm -- 31.54 in1068.1 mb 0.00 in0.0 mm 0.00 in0.0 mm 0.00 in0.0 mm
09:32 PM 32.0°F0.0°C -169.6°F-112.0°C - Calm Calm -- 31.54 in1068.1 mb 0.00 in0.0 mm 0.00 in0.0 mm 0.00 in0.0 mm
09:17 PM 32.0°F0.0°C -169.6°F-112.0°C - Calm Calm -- 31.54 in1068.1 mb 0.00 in0.0 mm 0.00 in0.0 mm 0.00 in0.0 mm
09:02 PM 32.0°F0.0°C -169.6°F-112.0°C - Calm Calm -- 31.53 in1067.7 mb 0.00 in0.0 mm 0.00 in0.0 mm 0.00 in0.0 mm
08:47 PM 32.0°F0.0°C -169.6°F-112.0°C - Calm Calm -- 31.53 in1067.7 mb 0.00 in0.0 mm 0.00 in0.0 mm 0.00 in0.0 mm
08:32 PM 32.0°F0.0°C -169.6°F-112.0°C - Calm Calm -- 31.53 in1067.7 mb 0.00 in0.0 mm 0.00 in0.0 mm 0.00 in0.0 mm
08:17 PM 32.0°F0.0°C -169.6°F-112.0°C - Calm Calm -- 31.50 in1066.7 mb 0.00 in0.0 mm 0.00 in0.0 mm 0.00 in0.0 mm
08:02 PM 32.0°F0.0°C -169.6°F-112.0°C - Calm Calm -- 31.50 in1066.7 mb 0.00 in0.0 mm 0.00 in0.0 mm 0.00 in0.0 mm
07:47 PM 32.0°F0.0°C -169.6°F-112.0°C - Calm Calm -- 31.49 in1066.4 mb 0.00 in0.0 mm 0.00 in0.0 mm 0.00 in0.0 mm
07:32 PM 32.0°F0.0°C -169.6°F-112.0°C - Calm Calm -- 31.48 in1066.0 mb 0.00 in0.0 mm 0.00 in0.0 mm 0.00 in0.0 mm
07:17 PM 32.0°F0.0°C -169.6°F-112.0°C - Calm Calm -- 31.47 in1065.7 mb 0.00 in0.0 mm 0.00 in0.0 mm 0.00 in0.0 mm
07:02 PM 32.0°F0.0°C -169.6°F-112.0°C - Calm Calm -- 31.47 in1065.7 mb 0.00 in0.0 mm 0.00 in0.0 mm 0.00 in0.0 mm
06:47 PM 32.0°F0.0°C -169.6°F-112.0°C - Calm Calm -- 31.48 in1066.0 mb 0.00 in0.0 mm 0.00 in0.0 mm 0.00 in0.0 mm
06:32 PM 32.0°F0.0°C -169.6°F-112.0°C - Calm Calm -- 31.49 in1066.4 mb 0.00 in0.0 mm 0.00 in0.0 mm 0.00 in0.0 mm
06:17 PM 32.0°F0.0°C -169.6°F-112.0°C - Calm Calm -- 31.51 in1067.1 mb 0.00 in0.0 mm 0.00 in0.0 mm 0.00 in0.0 mm
06:02 PM 32.0°F0.0°C -169.6°F-112.0°C - Calm Calm -- 31.51 in1067.1 mb 0.00 in0.0 mm 0.00 in0.0 mm 0.00 in0.0 mm
05:47 PM 32.0°F0.0°C -169.6°F-112.0°C - Calm Calm -- 31.52 in1067.4 mb 0.00 in0.0 mm 0.00 in0.0 mm 0.00 in0.0 mm
05:30 PM 32.0°F0.0°C -169.6°F-112.0°C - Calm Calm -- 31.52 in1067.4 mb 0.00 in0.0 mm 0.00 in0.0 mm 0.00 in0.0 mm
05:17 PM 32.0°F0.0°C -169.6°F-112.0°C - Calm Calm -- 31.52 in1067.4 mb 0.00 in0.0 mm 0.00 in0.0 mm 0.00 in0.0 mm
05:02 PM 32.0°F0.0°C -169.6°F-112.0°C - Calm Calm -- 31.52 in1067.4 mb 0.00 in0.0 mm 0.00 in0.0 mm 0.00 in0.0 mm
04:47 PM 32.0°F0.0°C -169.6°F-112.0°C - Calm Calm -- 31.52 in1067.4 mb 0.00 in0.0 mm 0.00 in0.0 mm 0.00 in0.0 mm
04:37 PM 32.0°F0.0°C -169.6°F-112.0°C - Calm Calm -- 31.54 in1068.1 mb 0.00 in0.0 mm 0.00 in0.0 mm 0.00 in0.0 mm
04:17 PM 32.0°F0.0°C -169.6°F-112.0°C - Calm Calm -- 31.56 in1068.7 mb 0.00 in0.0 mm 0.00 in0.0 mm 0.00 in0.0 mm
04:02 PM 32.0°F0.0°C -169.6°F-112.0°C - Calm Calm -- 31.54 in1068.1 mb 0.00 in0.0 mm 0.00 in0.0 mm 0.00 in0.0 mm
03:47 PM 32.0°F0.0°C -169.6°F-112.0°C - Calm Calm -- 31.52 in1067.4 mb 0.00 in0.0 mm 0.00 in0.0 mm 0.00 in0.0 mm
03:32 PM 32.0°F0.0°C -169.6°F-112.0°C - Calm Calm -- 31.50 in1066.7 mb 0.00 in0.0 mm 0.00 in0.0 mm 0.00 in0.0 mm
03:17 PM 32.0°F0.0°C -169.6°F-112.0°C - Calm Calm -- 31.48 in1066.0 mb 0.00 in0.0 mm 0.00 in0.0 mm 0.00 in0.0 mm
03:02 PM 32.0°F0.0°C -169.6°F-112.0°C - Calm Calm -- 31.45 in1065.0 mb 0.00 in0.0 mm 0.00 in0.0 mm 0.00 in0.0 mm
02:45 PM 32.0°F0.0°C -169.6°F-112.0°C - Calm Calm -- 31.41 in1063.7 mb 0.00 in0.0 mm 0.00 in0.0 mm 0.00 in0.0 mm
02:32 PM 32.0°F0.0°C -169.6°F-112.0°C - Calm Calm -- 31.41 in1063.7 mb 0.00 in0.0 mm 0.00 in0.0 mm 0.00 in0.0 mm
02:17 PM 32.0°F0.0°C -169.6°F-112.0°C - Calm Calm -- 31.39 in1063.0 mb 0.00 in0.0 mm 0.00 in0.0 mm 0.00 in0.0 mm
02:02 PM 32.0°F0.0°C -169.6°F-112.0°C - Calm Calm -- 31.37 in1062.3 mb 0.00 in0.0 mm 0.00 in0.0 mm 0.00 in0.0 mm
01:47 PM 32.0°F0.0°C -169.6°F-112.0°C - Calm Calm -- 31.34 in1061.3 mb 0.00 in0.0 mm 0.00 in0.0 mm 0.00 in0.0 mm
01:32 PM 32.0°F0.0°C -169.6°F-112.0°C - Calm Calm -- 31.31 in1060.3 mb 0.00 in0.0 mm 0.00 in0.0 mm 0.00 in0.0 mm
01:17 PM 32.0°F0.0°C -169.6°F-112.0°C - Calm Calm -- 31.28 in1059.3 mb 0.00 in0.0 mm 0.00 in0.0 mm 0.00 in0.0 mm
01:02 PM 32.0°F0.0°C -169.6°F-112.0°C - Calm Calm -- 31.26 in1058.6 mb 0.00 in0.0 mm 0.00 in0.0 mm 0.00 in0.0 mm
12:52 PM 32.0°F0.0°C -169.6°F-112.0°C - Calm Calm -- 31.26 in1058.6 mb 0.00 in0.0 mm 0.00 in0.0 mm 0.00 in0.0 mm
12:32 PM 32.0°F0.0°C -169.6°F-112.0°C - Calm Calm -- 31.28 in1059.3 mb 0.00 in0.0 mm 0.00 in0.0 mm 0.00 in0.0 mm
12:17 PM 32.0°F0.0°C -169.6°F-112.0°C - Calm Calm -- 31.31 in1060.3 mb 0.00 in0.0 mm 0.00 in0.0 mm 0.00 in0.0 mm
12:02 PM 32.0°F0.0°C -169.6°F-112.0°C - Calm Calm -- 31.33 in1061.0 mb 0.00 in0.0 mm 0.00 in0.0 mm 0.00 in0.0 mm
11:47 AM 32.0°F0.0°C -169.6°F-112.0°C - Calm Calm -- 31.36 in1062.0 mb 0.00 in0.0 mm 0.00 in0.0 mm 0.00 in0.0 mm
11:32 AM 32.0°F0.0°C -169.6°F-112.0°C - Calm Calm -- 31.39 in1063.0 mb 0.00 in0.0 mm 0.00 in0.0 mm 0.00 in0.0 mm
11:17 AM 32.0°F0.0°C -169.6°F-112.0°C - Calm Calm -- 31.46 in1065.4 mb 0.00 in0.0 mm 0.00 in0.0 mm 0.00 in0.0 mm
11:02 AM 32.0°F0.0°C -169.6°F-112.0°C - Calm Calm -- 31.54 in1068.1 mb 0.00 in0.0 mm 0.00 in0.0 mm 0.00 in0.0 mm
10:47 AM 32.0°F0.0°C -169.6°F-112.0°C - Calm Calm -- 31.61 in1070.4 mb 0.00 in0.0 mm 0.00 in0.0 mm 0.00 in0.0 mm
10:32 AM 32.0°F0.0°C -169.6°F-112.0°C - Calm Calm -- 31.63 in1071.1 mb 0.00 in0.0 mm 0.00 in0.0 mm 0.00 in0.0 mm
10:17 AM 32.0°F0.0°C -169.6°F-112.0°C - Calm Calm -- 31.65 in1071.8 mb 0.00 in0.0 mm 0.00 in0.0 mm 0.00 in0.0 mm
10:02 AM 32.0°F0.0°C -169.6°F-112.0°C - Calm Calm -- 31.66 in1072.1 mb 0.00 in0.0 mm 0.00 in0.0 mm 0.00 in0.0 mm
09:47 AM 32.0°F0.0°C -169.6°F-112.0°C - Calm Calm -- 31.66 in1072.1 mb 0.00 in0.0 mm 0.00 in0.0 mm 0.00 in0.0 mm
09:32 AM 32.0°F0.0°C -169.6°F-112.0°C - Calm Calm -- 31.67 in1072.5 mb 0.00 in0.0 mm 0.00 in0.0 mm 0.00 in0.0 mm
09:17 AM 32.0°F0.0°C -169.6°F-112.0°C - Calm Calm -- 31.67 in1072.5 mb 0.00 in0.0 mm 0.00 in0.0 mm 0.00 in0.0 mm
09:02 AM 32.0°F0.0°C -169.6°F-112.0°C - Calm Calm -- 31.68 in1072.8 mb 0.00 in0.0 mm 0.00 in0.0 mm 0.00 in0.0 mm
08:47 AM 32.0°F0.0°C -169.6°F-112.0°C - Calm Calm -- 31.68 in1072.8 mb 0.00 in0.0 mm 0.00 in0.0 mm 0.00 in0.0 mm
08:32 AM 32.0°F0.0°C -169.6°F-112.0°C - Calm Calm -- 31.68 in1072.8 mb 0.00 in0.0 mm 0.00 in0.0 mm 0.00 in0.0 mm
08:17 AM 32.0°F0.0°C -169.6°F-112.0°C - Calm Calm -- 31.68 in1072.8 mb 0.00 in0.0 mm 0.00 in0.0 mm 0.00 in0.0 mm
08:02 AM 32.0°F0.0°C -169.6°F-112.0°C - Calm Calm -- 31.67 in1072.5 mb 0.00 in0.0 mm 0.00 in0.0 mm 0.00 in0.0 mm
07:47 AM 32.0°F0.0°C -169.6°F-112.0°C - Calm Calm -- 31.67 in1072.5 mb 0.00 in0.0 mm 0.00 in0.0 mm 0.00 in0.0 mm
07:32 AM 32.0°F0.0°C -169.6°F-112.0°C - Calm Calm -- 31.67 in1072.5 mb 0.00 in0.0 mm 0.00 in0.0 mm 0.00 in0.0 mm
07:17 AM 32.0°F0.0°C -169.6°F-112.0°C - Calm Calm -- 31.68 in1072.8 mb 0.00 in0.0 mm 0.00 in0.0 mm 0.00 in0.0 mm
07:02 AM 32.0°F0.0°C -169.6°F-112.0°C - Calm Calm -- 31.68 in1072.8 mb 0.00 in0.0 mm 0.00 in0.0 mm 0.00 in0.0 mm
06:47 AM 32.0°F0.0°C -169.6°F-112.0°C - Calm Calm -- 31.67 in1072.5 mb 0.00 in0.0 mm 0.00 in0.0 mm 0.00 in0.0 mm
06:32 AM 32.0°F0.0°C -169.6°F-112.0°C - Calm Calm -- 31.67 in1072.5 mb 0.00 in0.0 mm 0.00 in0.0 mm 0.00 in0.0 mm
06:17 AM 32.0°F0.0°C -169.6°F-112.0°C - Calm Calm -- 31.68 in1072.8 mb 0.00 in0.0 mm 0.00 in0.0 mm 0.00 in0.0 mm
06:02 AM 32.0°F0.0°C -169.6°F-112.0°C - Calm Calm -- 31.69 in1073.1 mb 0.00 in0.0 mm 0.00 in0.0 mm 0.00 in0.0 mm
05:47 AM 32.0°F0.0°C -169.6°F-112.0°C - Calm Calm -- 31.70 in1073.5 mb 0.00 in0.0 mm 0.00 in0.0 mm 0.00 in0.0 mm
05:32 AM 32.0°F0.0°C -169.6°F-112.0°C - Calm Calm -- 31.71 in1073.8 mb 0.00 in0.0 mm 0.00 in0.0 mm 0.00 in0.0 mm
05:17 AM 32.0°F0.0°C -169.6°F-112.0°C - Calm Calm -- 31.72 in1074.2 mb 0.00 in0.0 mm 0.00 in0.0 mm 0.00 in0.0 mm
05:02 AM 32.0°F0.0°C -169.6°F-112.0°C - Calm Calm -- 31.71 in1073.8 mb 0.00 in0.0 mm 0.00 in0.0 mm 0.00 in0.0 mm
04:47 AM 32.0°F0.0°C -169.6°F-112.0°C - Calm Calm -- 31.70 in1073.5 mb 0.00 in0.0 mm 0.00 in0.0 mm 0.00 in0.0 mm
04:32 AM 32.0°F0.0°C -169.6°F-112.0°C - Calm Calm -- 31.69 in1073.1 mb 0.00 in0.0 mm 0.00 in0.0 mm 0.00 in0.0 mm
04:17 AM 32.0°F0.0°C -169.6°F-112.0°C - Calm Calm -- 31.67 in1072.5 mb 0.00 in0.0 mm 0.00 in0.0 mm 0.00 in0.0 mm
04:02 AM 32.0°F0.0°C -169.6°F-112.0°C - Calm Calm -- 31.66 in1072.1 mb 0.00 in0.0 mm 0.00 in0.0 mm 0.00 in0.0 mm
03:47 AM 32.0°F0.0°C -169.6°F-112.0°C - Calm Calm -- 31.64 in1071.5 mb 0.00 in0.0 mm 0.00 in0.0 mm 0.00 in0.0 mm
03:32 AM 32.0°F0.0°C -169.6°F-112.0°C - Calm Calm -- 31.63 in1071.1 mb 0.00 in0.0 mm 0.00 in0.0 mm 0.00 in0.0 mm
03:17 AM 32.0°F0.0°C -169.6°F-112.0°C - Calm Calm -- 31.62 in1070.8 mb 0.00 in0.0 mm 0.00 in0.0 mm 0.00 in0.0 mm
03:02 AM 32.0°F0.0°C -169.6°F-112.0°C - Calm Calm -- 31.60 in1070.1 mb 0.00 in0.0 mm 0.00 in0.0 mm 0.00 in0.0 mm
02:47 AM 32.0°F0.0°C -169.6°F-112.0°C - Calm Calm -- 31.60 in1070.1 mb 0.00 in0.0 mm 0.00 in0.0 mm 0.00 in0.0 mm
02:32 AM 32.0°F0.0°C -169.6°F-112.0°C - Calm Calm -- 31.59 in1069.8 mb 0.00 in0.0 mm 0.00 in0.0 mm 0.00 in0.0 mm
02:17 AM 32.0°F0.0°C -169.6°F-112.0°C - Calm Calm -- 31.57 in1069.1 mb 0.00 in0.0 mm 0.00 in0.0 mm 0.00 in0.0 mm
02:02 AM 32.0°F0.0°C -169.6°F-112.0°C - Calm Calm -- 31.56 in1068.7 mb 0.00 in0.0 mm 0.00 in0.0 mm 0.00 in0.0 mm
01:47 AM 32.0°F0.0°C -169.6°F-112.0°C - Calm Calm -- 31.53 in1067.7 mb 0.00 in0.0 mm 0.00 in0.0 mm 0.00 in0.0 mm
01:32 AM 32.0°F0.0°C -169.6°F-112.0°C - Calm Calm -- 31.52 in1067.4 mb 0.00 in0.0 mm 0.00 in0.0 mm 0.00 in0.0 mm
01:17 AM 32.0°F0.0°C -169.6°F-112.0°C - Calm Calm -- 31.50 in1066.7 mb 0.00 in0.0 mm 0.00 in0.0 mm 0.00 in0.0 mm
01:02 AM 32.0°F0.0°C -169.6°F-112.0°C - Calm Calm -- 31.48 in1066.0 mb 0.00 in0.0 mm 0.00 in0.0 mm 0.00 in0.0 mm
12:47 AM 32.0°F0.0°C -169.6°F-112.0°C - Calm Calm -- 31.46 in1065.4 mb 0.00 in0.0 mm 0.00 in0.0 mm 0.00 in0.0 mm
12:32 AM 32.0°F0.0°C -169.6°F-112.0°C - Calm Calm -- 31.44 in1064.7 mb 0.00 in0.0 mm 0.00 in0.0 mm 0.00 in0.0 mm
12:17 AM 32.0°F0.0°C -169.6°F-112.0°C - Calm Calm -- 31.42 in1064.0 mb 0.00 in0.0 mm 0.00 in0.0 mm 0.00 in0.0 mm
12:02 AM 32.0°F0.0°C -169.6°F-112.0°C - Calm Calm -- 31.40 in1063.3 mb 0.00 in0.0 mm 0.00 in0.0 mm 0.00 in0.0 mm